Bornholm — C4KF2 — position and weather

sailwx.info

Track history (hours):
 
Tides and Currents Weather Stations Pressure Air Temp Water Temp Dewpoint Dewpoint Depression Visibility Wind Speed Wind Dir Waves Ship Positions

Bornholm

Last reported at 2014-Oct-18 16:10 UTC. Time now 2014-Oct-23 07:52 UTC.
Position N 55°52' E 016°07'.

Length 118 m; draft 4.7 m.

Type: Cargo ship. MMSI: 212521000.

Date/timePositionNaut miles runAvg speedWind from/ knotsBaromVisibWave heightAir tempDewpointWater temp
2014-Oct-18 16:10N 55°52' E 016°07'2313.8
2014-Oct-18 14:30N 55°40' E 015°32'1313.7
2014-Oct-18 13:32N 55°34' E 015°11'1413.9
2014-Oct-18 12:33N 55°27' E 014°50'1413.5
2014-Oct-18 11:33N 55°18' E 014°32'1212.5
2014-Oct-18 10:33N 55°11' E 014°14'4013.0
2014-Oct-18 07:29N 55°14' E 013°04'1213.0
2014-Oct-18 06:33N 55°17' E 012°44'1111.2
2014-Oct-18 05:33N 55°28' E 012°41'1212.3
2014-Oct-18 04:33N 55°40' E 012°41'1211.7
2014-Oct-18 03:33N 55°52' E 012°39'1111.4
2014-Oct-18 02:34N 56°03' E 012°38'1010.2
2014-Oct-18 01:33N 56°10' E 012°24'1211.8
2014-Oct-18 00:33N 56°16' E 012°06'2211.1
2014-Oct-17 22:33N 56°38' E 011°55'1111.0
2014-Oct-17 21:32N 56°48' E 011°49'1010.6
2014-Oct-17 20:33N 56°58' E 011°41'1310.7
2014-Oct-17 19:21N 57°09' E 011°31'1010.5
2014-Oct-17 18:25N 57°18' E 011°23'8 9.5
2014-Oct-17 17:33N 57°26' E 011°17'9 9.3
2014-Oct-17 16:33N 57°31' E 011°03'10 9.7
2014-Oct-17 15:33N 57°36' E 010°47'8 7.7
2014-Oct-17 14:33N 57°40' E 010°36'0 0.0
2014-Oct-17 11:29N 57°41' E 010°35'0 0.0
2014-Oct-17 10:26N 57°41' E 010°35'0 0.0
2014-Oct-17 09:29N 57°41' E 010°35'0 0.0
2014-Oct-17 07:08N 57°41' E 010°35'0 0.0
2014-Oct-17 06:32N 57°41' E 010°35'5 5.3
2014-Oct-17 05:33N 57°44' E 010°43'6 6.4
2014-Oct-17 04:33N 57°46' E 010°31'10 9.7
2014-Oct-17 03:33N 57°43' E 010°14'1010.3
2014-Oct-17 02:33N 57°39' E 009°56'164 9.5
2014-Oct-16 09:17N 55°36' E 006°40'2112.3
2014-Oct-16 07:33N 55°18' E 006°20'6612.3
2014-Oct-16 02:08N 54°21' E 005°20'812.5
2014-Oct-16 01:32N 54°15' E 005°13'1212.2
2014-Oct-16 00:32N 54°04' E 005°05'1212.4
2014-Oct-15 23:33N 53°52' E 004°60'1312.8
2014-Oct-15 22:33N 53°40' E 004°52'1313.2
2014-Oct-15 21:33N 53°27' E 004°45'1413.9
2014-Oct-15 20:31N 53°14' E 004°34'1313.7
2014-Oct-15 19:33N 53°03' E 004°24'1313.2
2014-Oct-15 18:33N 52°51' E 004°14'1312.5
2014-Oct-15 17:33N 52°41' E 004°01'8211.3
2014-Oct-15 10:19N 51°40' E 002°31'912.1
2014-Oct-15 09:33N 51°33' E 002°22'1312.2
2014-Oct-15 08:31N 51°22' E 002°12'1212.6
2014-Oct-15 07:33N 51°12' E 002°01'1313.2
2014-Oct-15 06:33N 51°05' E 001°43'1513.9
2014-Oct-15 05:31N 50°54' E 001°28'3913.0
2014-Oct-15 02:32N 50°23' E 000°53'4713.8
2014-Oct-14 23:05N 49°46' E 000°06'713.0
2014-Oct-14 22:33N 49°40' E 000°00'1211.6
2014-Oct-14 21:33N 49°29' W 000°06'1212.2
2014-Oct-14 20:33N 49°26' E 000°12'1413.4
2014-Oct-14 19:33N 49°28' E 000°32'  
2014-Oct-12 02:20N 49°27' E 000°33'8 9.7
2014-Oct-12 01:31N 49°26' E 000°21'1212.2
2014-Oct-12 00:33N 49°27' E 000°03'9 8.7
2014-Oct-11 23:33N 49°30' W 000°09'7 6.6
2014-Oct-11 22:33N 49°33' W 000°18'6 6.2
2014-Oct-11 21:33N 49°36' W 000°27'220 9.2
2014-Oct-10 21:33N 48°15' W 005°39'  
Track history (hours):
 
Tides and Currents Weather Stations Pressure Air Temp Water Temp Dewpoint Dewpoint Depression Visibility Wind Speed Wind Dir Waves Ship Positions

Bornholm

Last reported at 2014-Oct-18 16:10 UTC. Time now 2014-Oct-23 07:52 UTC.
Position N 55°52' E 016°07'.

Length 118 m; draft 4.7 m.

Type: Cargo ship. MMSI: 212521000.

Date/timePositionNaut miles runAvg speedWind from/ knotsBaromVisibWave heightAir tempDewpointWater temp
2014-Oct-18 16:10N 55°52' E 016°07'2313.8
2014-Oct-18 14:30N 55°40' E 015°32'1313.7
2014-Oct-18 13:32N 55°34' E 015°11'1413.9
2014-Oct-18 12:33N 55°27' E 014°50'1413.5
2014-Oct-18 11:33N 55°18' E 014°32'1212.5
2014-Oct-18 10:33N 55°11' E 014°14'4013.0
2014-Oct-18 07:29N 55°14' E 013°04'1213.0
2014-Oct-18 06:33N 55°17' E 012°44'1111.2
2014-Oct-18 05:33N 55°28' E 012°41'1212.3
2014-Oct-18 04:33N 55°40' E 012°41'1211.7
2014-Oct-18 03:33N 55°52' E 012°39'1111.4
2014-Oct-18 02:34N 56°03' E 012°38'1010.2
2014-Oct-18 01:33N 56°10' E 012°24'1211.8
2014-Oct-18 00:33N 56°16' E 012°06'2211.1
2014-Oct-17 22:33N 56°38' E 011°55'1111.0
2014-Oct-17 21:32N 56°48' E 011°49'1010.6
2014-Oct-17 20:33N 56°58' E 011°41'1310.7
2014-Oct-17 19:21N 57°09' E 011°31'1010.5
2014-Oct-17 18:25N 57°18' E 011°23'8 9.5
2014-Oct-17 17:33N 57°26' E 011°17'9 9.3
2014-Oct-17 16:33N 57°31' E 011°03'10 9.7
2014-Oct-17 15:33N 57°36' E 010°47'8 7.7
2014-Oct-17 14:33N 57°40' E 010°36'0 0.0
2014-Oct-17 11:29N 57°41' E 010°35'0 0.0
2014-Oct-17 10:26N 57°41' E 010°35'0 0.0
2014-Oct-17 09:29N 57°41' E 010°35'0 0.0
2014-Oct-17 07:08N 57°41' E 010°35'0 0.0
2014-Oct-17 06:32N 57°41' E 010°35'5 5.3
2014-Oct-17 05:33N 57°44' E 010°43'6 6.4
2014-Oct-17 04:33N 57°46' E 010°31'10 9.7
2014-Oct-17 03:33N 57°43' E 010°14'1010.3
2014-Oct-17 02:33N 57°39' E 009°56'164 9.5
2014-Oct-16 09:17N 55°36' E 006°40'2112.3
2014-Oct-16 07:33N 55°18' E 006°20'6612.3
2014-Oct-16 02:08N 54°21' E 005°20'812.5
2014-Oct-16 01:32N 54°15' E 005°13'1212.2
2014-Oct-16 00:32N 54°04' E 005°05'1212.4
2014-Oct-15 23:33N 53°52' E 004°60'1312.8
2014-Oct-15 22:33N 53°40' E 004°52'1313.2
2014-Oct-15 21:33N 53°27' E 004°45'1413.9
2014-Oct-15 20:31N 53°14' E 004°34'1313.7
2014-Oct-15 19:33N 53°03' E 004°24'1313.2
2014-Oct-15 18:33N 52°51' E 004°14'1312.5
2014-Oct-15 17:33N 52°41' E 004°01'8211.3
2014-Oct-15 10:19N 51°40' E 002°31'912.1
2014-Oct-15 09:33N 51°33' E 002°22'1312.2
2014-Oct-15 08:31N 51°22' E 002°12'1212.6
2014-Oct-15 07:33N 51°12' E 002°01'1313.2
2014-Oct-15 06:33N 51°05' E 001°43'1513.9
2014-Oct-15 05:31N 50°54' E 001°28'3913.0
2014-Oct-15 02:32N 50°23' E 000°53'4713.8
2014-Oct-14 23:05N 49°46' E 000°06'713.0
2014-Oct-14 22:33N 49°40' E 000°00'1211.6
2014-Oct-14 21:33N 49°29' W 000°06'1212.2
2014-Oct-14 20:33N 49°26' E 000°12'1413.4
2014-Oct-14 19:33N 49°28' E 000°32'  
2014-Oct-12 02:20N 49°27' E 000°33'8 9.7
2014-Oct-12 01:31N 49°26' E 000°21'1212.2
2014-Oct-12 00:33N 49°27' E 000°03'9 8.7
2014-Oct-11 23:33N 49°30' W 000°09'7 6.6
2014-Oct-11 22:33N 49°33' W 000°18'6 6.2
2014-Oct-11 21:33N 49°36' W 000°27'220 9.2
2014-Oct-10 21:33N 48°15' W 005°39'  

Dump ship's entire track history